sensor_id;sensor_type;location;lat;lon;timestamp;pressure;altitude;pressure_sealevel;temperature;humidity
9141;BME280;46330;50.822;7.126;2023-11-21T00:00:05;100322.66;;;8.38;100.00
9141;BME280;46330;50.822;7.126;2023-11-21T00:02:39;100321.78;;;8.39;100.00
9141;BME280;46330;50.822;7.126;2023-11-21T00:05:08;100328.72;;;8.40;100.00
9141;BME280;46330;50.822;7.126;2023-11-21T00:07:37;100331.28;;;8.41;100.00
9141;BME280;46330;50.822;7.126;2023-11-21T00:10:07;100334.81;;;8.39;100.00
9141;BME280;46330;50.822;7.126;2023-11-21T00:12:37;100334.81;;;8.39;100.00
9141;BME280;46330;50.822;7.126;2023-11-21T00:15:06;100332.19;;;8.40;100.00
9141;BME280;46330;50.822;7.126;2023-11-21T00:17:36;100334.75;;;8.42;100.00
9141;BME280;46330;50.822;7.126;2023-11-21T00:20:06;100332.19;;;8.39;100.00
9141;BME280;46330;50.822;7.126;2023-11-21T00:22:34;100329.69;;;8.34;100.00
9141;BME280;46330;50.822;7.126;2023-11-21T00:25:02;100332.28;;;8.33;100.00
9141;BME280;46330;50.822;7.126;2023-11-21T00:27:32;100335.81;;;8.30;100.00
9141;BME280;46330;50.822;7.126;2023-11-21T00:30:02;100347.16;;;8.23;100.00
9141;BME280;46330;50.822;7.126;2023-11-21T00:32:33;100344.59;;;8.22;100.00
9141;BME280;46330;50.822;7.126;2023-11-21T00:35:01;100348.06;;;8.21;100.00
9141;BME280;46330;50.822;7.126;2023-11-21T00:37:28;100346.38;;;8.18;100.00
9141;BME280;46330;50.822;7.126;2023-11-21T00:39:58;100343.78;;;8.18;100.00
9141;BME280;46330;50.822;7.126;2023-11-21T00:42:27;100346.34;;;8.20;100.00
9141;BME280;46330;50.822;7.126;2023-11-21T00:44:56;100349.81;;;8.22;100.00
9141;BME280;46330;50.822;7.126;2023-11-21T00:47:24;100358.53;;;8.18;100.00
9141;BME280;46330;50.822;7.126;2023-11-21T00:49:52;100362.00;;;8.17;100.00
9141;BME280;46330;50.822;7.126;2023-11-21T00:52:20;100365.53;;;8.16;100.00
9141;BME280;46330;50.822;7.126;2023-11-21T00:54:48;100352.53;;;8.13;100.00
9141;BME280;46330;50.822;7.126;2023-11-21T00:57:16;100361.19;;;8.13;100.00
9141;BME280;46330;50.822;7.126;2023-11-21T00:59:44;100367.28;;;8.13;100.00
9141;BME280;46330;50.822;7.126;2023-11-21T01:02:14;100363.75;;;8.18;100.00
9141;BME280;46330;50.822;7.126;2023-11-21T01:04:42;100362.00;;;8.17;100.00
9141;BME280;46330;50.822;7.126;2023-11-21T01:07:10;100373.34;;;8.16;100.00
9141;BME280;46330;50.822;7.126;2023-11-21T01:09:38;100373.34;;;8.16;100.00
9141;BME280;46330;50.822;7.126;2023-11-21T01:12:07;100376.81;;;8.15;100.00
9141;BME280;46330;50.822;7.126;2023-11-21T01:14:35;100379.38;;;8.16;100.00
9141;BME280;46330;50.822;7.126;2023-11-21T01:17:04;100388.09;;;8.13;100.00
9141;BME280;46330;50.822;7.126;2023-11-21T01:19:34;100382.06;;;8.10;100.00
9141;BME280;46330;50.822;7.126;2023-11-21T01:22:02;100390.78;;;8.07;100.00
9141;BME280;46330;50.822;7.126;2023-11-21T01:24:31;100389.09;;;8.05;100.00
9141;BME280;46330;50.822;7.126;2023-11-21T01:26:59;100389.94;;;8.07;100.00
9141;BME280;46330;50.822;7.126;2023-11-21T01:29:27;100389.03;;;8.09;100.00
9141;BME280;46330;50.822;7.126;2023-11-21T01:31:55;100385.59;;;8.07;100.00
9141;BME280;46330;50.822;7.126;2023-11-21T01:34:24;100388.19;;;8.07;100.00
9141;BME280;46330;50.822;7.126;2023-11-21T01:36:54;100395.25;;;7.99;100.00
9141;BME280;46330;50.822;7.126;2023-11-21T01:39:22;100394.34;;;8.02;100.00
9141;BME280;46330;50.822;7.126;2023-11-21T01:41:51;100393.47;;;8.03;100.00
9141;BME280;46330;50.822;7.126;2023-11-21T01:44:19;100390.06;;;7.98;100.00
9141;BME280;46330;50.822;7.126;2023-11-21T01:46:47;100396.13;;;7.98;100.00
9141;BME280;46330;50.822;7.126;2023-11-21T01:49:16;100402.13;;;8.03;100.00
9141;BME280;46330;50.822;7.126;2023-11-21T01:51:47;100403.03;;;8.01;100.00
9141;BME280;46330;50.822;7.126;2023-11-21T01:54:19;100403.91;;;8.01;100.00
9141;BME280;46330;50.822;7.126;2023-11-21T01:56:48;100405.75;;;7.93;100.00
9141;BME280;46330;50.822;7.126;2023-11-21T01:59:19;100407.53;;;7.90;100.00
9141;BME280;46330;50.822;7.126;2023-11-21T02:01:48;100409.31;;;7.86;100.00
9141;BME280;46330;50.822;7.126;2023-11-21T02:04:18;100411.91;;;7.86;100.00
9141;BME280;46330;50.822;7.126;2023-11-21T02:06:46;100404.97;;;7.85;100.00
9141;BME280;46330;50.822;7.126;2023-11-21T02:09:15;100411.03;;;7.86;100.00
9141;BME280;46330;50.822;7.126;2023-11-21T02:11:45;100421.44;;;7.86;100.00
9141;BME280;46330;50.822;7.126;2023-11-21T02:14:13;100419.72;;;7.85;100.00
9141;BME280;46330;50.822;7.126;2023-11-21T02:16:41;100421.44;;;7.87;100.00
9141;BME280;46330;50.822;7.126;2023-11-21T02:19:18;100433.63;;;7.82;100.00
9141;BME280;46330;50.822;7.126;2023-11-21T02:21:47;100433.59;;;7.85;100.00
9141;BME280;46330;50.822;7.126;2023-11-21T02:24:18;100425.78;;;7.85;100.00
9141;BME280;46330;50.822;7.126;2023-11-21T02:26:46;100437.91;;;7.88;100.00
9141;BME280;46330;50.822;7.126;2023-11-21T02:29:14;100431.03;;;7.84;100.00
9141;BME280;46330;50.822;7.126;2023-11-21T02:31:45;100443.16;;;7.85;100.00
9141;BME280;46330;50.822;7.126;2023-11-21T02:34:15;100437.97;;;7.83;100.00
9141;BME280;46330;50.822;7.126;2023-11-21T02:36:44;100439.75;;;7.81;100.00
9141;BME280;46330;50.822;7.126;2023-11-21T02:39:12;100450.13;;;7.83;100.00
9141;BME280;46330;50.822;7.126;2023-11-21T02:41:42;100451.03;;;7.79;100.00
9141;BME280;46330;50.822;7.126;2023-11-21T02:44:10;100442.38;;;7.77;100.00
9141;BME280;46330;50.822;7.126;2023-11-21T02:46:38;100451.09;;;7.74;100.00
9141;BME280;46330;50.822;7.126;2023-11-21T02:49:07;100458.88;;;7.76;100.00
9141;BME280;46330;50.822;7.126;2023-11-21T02:51:37;100450.22;;;7.75;100.00
9141;BME280;46330;50.822;7.126;2023-11-21T02:54:06;100448.50;;;7.73;100.00
9141;BME280;46330;50.822;7.126;2023-11-21T02:56:45;100456.44;;;7.62;100.00
9141;BME280;46330;50.822;7.126;2023-11-21T02:59:13;100446.09;;;7.56;100.00
9141;BME280;46330;50.822;7.126;2023-11-21T03:01:42;100447.00;;;7.52;100.00
9141;BME280;46330;50.822;7.126;2023-11-21T03:04:10;100450.53;;;7.46;100.00
9141;BME280;46330;50.822;7.126;2023-11-21T03:06:46;100455.72;;;7.45;100.00
9141;BME280;46330;50.822;7.126;2023-11-21T03:09:14;100449.69;;;7.41;100.00
9141;BME280;46330;50.822;7.126;2023-11-21T03:11:43;100446.25;;;7.39;100.00
9141;BME280;46330;50.822;7.126;2023-11-21T03:14:12;100452.31;;;7.40;100.00
9141;BME280;46330;50.822;7.126;2023-11-21T03:16:40;100443.66;;;7.41;100.00
9141;BME280;46330;50.822;7.126;2023-11-21T03:19:08;100446.25;;;7.39;100.00
9141;BME280;46330;50.822;7.126;2023-11-21T03:21:36;100449.72;;;7.38;100.00
9141;BME280;46330;50.822;7.126;2023-11-21T03:24:05;100457.50;;;7.41;100.00
9141;BME280;46330;50.822;7.126;2023-11-21T03:26:34;100464.47;;;7.41;100.00
9141;BME280;46330;50.822;7.126;2023-11-21T03:29:02;100472.25;;;7.44;100.00
9141;BME280;46330;50.822;7.126;2023-11-21T03:31:32;100476.50;;;7.48;100.00
9141;BME280;46330;50.822;7.126;2023-11-21T03:34:00;100478.22;;;7.50;100.00
9141;BME280;46330;50.822;7.126;2023-11-21T03:36:28;100486.94;;;7.49;100.00
9141;BME280;46330;50.822;7.126;2023-11-21T03:38:56;100483.41;;;7.50;100.00
9141;BME280;46330;50.822;7.126;2023-11-21T03:41:24;100494.69;;;7.51;100.00
9141;BME280;46330;50.822;7.126;2023-11-21T03:43:52;100495.56;;;7.53;100.00
9141;BME280;46330;50.822;7.126;2023-11-21T03:46:20;100488.59;;;7.53;100.00
9141;BME280;46330;50.822;7.126;2023-11-21T03:48:49;100497.28;;;7.55;100.00
9141;BME280;46330;50.822;7.126;2023-11-21T03:51:17;100501.63;;;7.55;100.00
9141;BME280;46330;50.822;7.126;2023-11-21T03:53:45;100501.59;;;7.56;100.00
9141;BME280;46330;50.822;7.126;2023-11-21T03:56:13;100505.06;;;7.58;100.00
9141;BME280;46330;50.822;7.126;2023-11-21T03:58:41;100500.72;;;7.59;100.00
9141;BME280;46330;50.822;7.126;2023-11-21T04:01:09;100508.53;;;7.59;100.00
9141;BME280;46330;50.822;7.126;2023-11-21T04:03:37;100512.84;;;7.62;100.00
9141;BME280;46330;50.822;7.126;2023-11-21T04:06:08;100518.91;;;7.62;100.00
9141;BME280;46330;50.822;7.126;2023-11-21T04:08:36;100522.38;;;7.61;100.00
9141;BME280;46330;50.822;7.126;2023-11-21T04:11:04;100531.91;;;7.61;100.00
9141;BME280;46330;50.822;7.126;2023-11-21T04:13:32;100541.47;;;7.60;100.00
9141;BME280;46330;50.822;7.126;2023-11-21T04:16:00;100534.50;;;7.64;100.00
9141;BME280;46330;50.822;7.126;2023-11-21T04:18:29;100534.50;;;7.65;100.00
9141;BME280;46330;50.822;7.126;2023-11-21T04:20:57;100533.63;;;7.65;100.00
9141;BME280;46330;50.822;7.126;2023-11-21T04:23:29;100545.78;;;7.66;100.00
9141;BME280;46330;50.822;7.126;2023-11-21T04:25:57;100537.06;;;7.67;100.00
9141;BME280;46330;50.822;7.126;2023-11-21T04:28:25;100543.13;;;7.67;100.00
9141;BME280;46330;50.822;7.126;2023-11-21T04:30:53;100550.94;;;7.69;100.00
9141;BME280;46330;50.822;7.126;2023-11-21T04:33:22;100557.00;;;7.69;100.00
9141;BME280;46330;50.822;7.126;2023-11-21T04:35:50;100552.66;;;7.70;100.00
9141;BME280;46330;50.822;7.126;2023-11-21T04:38:18;100558.69;;;7.73;100.00
9141;BME280;46330;50.822;7.126;2023-11-21T04:40:48;100556.97;;;7.75;100.00
9141;BME280;46330;50.822;7.126;2023-11-21T04:43:16;100552.59;;;7.76;100.00
9141;BME280;46330;50.822;7.126;2023-11-21T04:45:44;100552.59;;;7.76;100.00
9141;BME280;46330;50.822;7.126;2023-11-21T04:48:12;100557.84;;;7.74;100.00
9141;BME280;46330;50.822;7.126;2023-11-21T04:50:40;100549.16;;;7.75;100.00
9141;BME280;46330;50.822;7.126;2023-11-21T04:53:08;100552.59;;;7.76;100.00
9141;BME280;46330;50.822;7.126;2023-11-21T04:55:43;100557.81;;;7.76;100.00
9141;BME280;46330;50.822;7.126;2023-11-21T04:58:14;100557.81;;;7.76;100.00
9141;BME280;46330;50.822;7.126;2023-11-21T05:00:42;100559.53;;;7.77;100.00
9141;BME280;46330;50.822;7.126;2023-11-21T05:03:10;100563.91;;;7.75;100.00
9141;BME280;46330;50.822;7.126;2023-11-21T05:05:38;100561.34;;;7.72;100.00
9141;BME280;46330;50.822;7.126;2023-11-21T05:08:07;100569.16;;;7.67;100.00
9141;BME280;46330;50.822;7.126;2023-11-21T05:10:35;100565.75;;;7.62;100.00
9141;BME280;46330;50.822;7.126;2023-11-21T05:13:04;100564.03;;;7.58;100.00
9141;BME280;46330;50.822;7.126;2023-11-21T05:15:37;100564.84;;;7.63;100.00
9141;BME280;46330;50.822;7.126;2023-11-21T05:18:06;100568.34;;;7.65;100.00
9141;BME280;46330;50.822;7.126;2023-11-21T05:20:34;100574.38;;;7.69;100.00
9141;BME280;46330;50.822;7.126;2023-11-21T05:23:02;100572.63;;;7.69;100.00
9141;BME280;46330;50.822;7.126;2023-11-21T05:25:30;100581.28;;;7.70;100.00
9141;BME280;46330;50.822;7.126;2023-11-21T05:27:59;100583.06;;;7.68;100.00
9141;BME280;46330;50.822;7.126;2023-11-21T05:30:28;100594.31;;;7.71;100.00
9141;BME280;46330;50.822;7.126;2023-11-21T05:32:57;100589.06;;;7.73;100.00
9141;BME280;46330;50.822;7.126;2023-11-21T05:35:25;100590.81;;;7.72;100.00
9141;BME280;46330;50.822;7.126;2023-11-21T05:37:53;100600.34;;;7.73;100.00
9141;BME280;46330;50.822;7.126;2023-11-21T05:40:21;100604.69;;;7.73;100.00
9141;BME280;46330;50.822;7.126;2023-11-21T05:42:50;100605.56;;;7.75;100.00
9141;BME280;46330;50.822;7.126;2023-11-21T05:45:18;100609.88;;;7.76;100.00
9141;BME280;46330;50.822;7.126;2023-11-21T05:47:47;100608.13;;;7.76;100.00
9141;BME280;46330;50.822;7.126;2023-11-21T05:50:17;100609.88;;;7.77;100.00
9141;BME280;46330;50.822;7.126;2023-11-21T05:52:46;100602.91;;;7.79;100.00
9141;BME280;46330;50.822;7.126;2023-11-21T05:55:15;100612.44;;;7.79;100.00
9141;BME280;46330;50.822;7.126;2023-11-21T05:57:43;100612.47;;;7.77;100.00
9141;BME280;46330;50.822;7.126;2023-11-21T06:00:13;100617.69;;;7.76;100.00
9141;BME280;46330;50.822;7.126;2023-11-21T06:02:46;100625.53;;;7.74;100.00
9141;BME280;46330;50.822;7.126;2023-11-21T06:05:19;100631.59;;;7.75;100.00
9141;BME280;46330;50.822;7.126;2023-11-21T06:07:50;100634.19;;;7.75;100.00
9141;BME280;46330;50.822;7.126;2023-11-21T06:10:20;100634.19;;;7.73;100.00
9141;BME280;46330;50.822;7.126;2023-11-21T06:12:48;100636.81;;;7.72;100.00
9141;BME280;46330;50.822;7.126;2023-11-21T06:15:24;100642.88;;;7.74;100.00
9141;BME280;46330;50.822;7.126;2023-11-21T06:17:52;100644.59;;;7.73;100.00
9141;BME280;46330;50.822;7.126;2023-11-21T06:20:21;100642.00;;;7.75;100.00
9141;BME280;46330;50.822;7.126;2023-11-21T06:22:50;100646.31;;;7.76;100.00
9141;BME280;46330;50.822;7.126;2023-11-21T06:25:19;100649.78;;;7.76;100.00
9141;BME280;46330;50.822;7.126;2023-11-21T06:27:47;100650.66;;;7.78;100.00
9141;BME280;46330;50.822;7.126;2023-11-21T06:30:15;100659.34;;;7.77;100.00
9141;BME280;46330;50.822;7.126;2023-11-21T06:32:47;100664.56;;;7.77;100.00
9141;BME280;46330;50.822;7.126;2023-11-21T06:35:16;100662.78;;;7.79;100.00
9141;BME280;46330;50.822;7.126;2023-11-21T06:37:44;100667.09;;;7.82;100.00
9141;BME280;46330;50.822;7.126;2023-11-21T06:40:17;100670.56;;;7.82;100.00
9141;BME280;46330;50.822;7.126;2023-11-21T06:42:47;100674.91;;;7.82;100.00
9141;BME280;46330;50.822;7.126;2023-11-21T06:45:15;100684.47;;;7.84;100.00
9141;BME280;46330;50.822;7.126;2023-11-21T06:47:43;100674.06;;;7.84;100.00
9141;BME280;46330;50.822;7.126;2023-11-21T06:50:13;100682.69;;;7.85;100.00
9141;BME280;46330;50.822;7.126;2023-11-21T06:52:41;100678.38;;;7.87;100.00
9141;BME280;46330;50.822;7.126;2023-11-21T06:55:10;100683.53;;;7.88;100.00
9141;BME280;46330;50.822;7.126;2023-11-21T06:57:38;100695.69;;;7.89;100.00
9141;BME280;46330;50.822;7.126;2023-11-21T07:00:06;100707.84;;;7.89;100.00
9141;BME280;46330;50.822;7.126;2023-11-21T07:02:36;100705.25;;;7.89;100.00
9141;BME280;46330;50.822;7.126;2023-11-21T07:05:05;100707.81;;;7.92;100.00
9141;BME280;46330;50.822;7.126;2023-11-21T07:07:35;100713.03;;;7.93;100.00
9141;BME280;46330;50.822;7.126;2023-11-21T07:10:05;100719.97;;;7.96;100.00
9141;BME280;46330;50.822;7.126;2023-11-21T07:12:33;100726.03;;;7.96;100.00
9141;BME280;46330;50.822;7.126;2023-11-21T07:15:02;100725.13;;;7.97;100.00
9141;BME280;46330;50.822;7.126;2023-11-21T07:17:32;100731.22;;;7.98;100.00
9141;BME280;46330;50.822;7.126;2023-11-21T07:20:01;100731.22;;;7.99;100.00
9141;BME280;46330;50.822;7.126;2023-11-21T07:22:29;100741.63;;;8.02;100.00
9141;BME280;46330;50.822;7.126;2023-11-21T07:24:59;100742.47;;;8.04;100.00
9141;BME280;46330;50.822;7.126;2023-11-21T07:27:27;100741.59;;;8.05;100.00
9141;BME280;46330;50.822;7.126;2023-11-21T07:29:55;100738.97;;;8.07;100.00
9141;BME280;46330;50.822;7.126;2023-11-21T07:32:24;100755.47;;;8.09;100.00
9141;BME280;46330;50.822;7.126;2023-11-21T07:34:52;100758.03;;;8.10;100.00
9141;BME280;46330;50.822;7.126;2023-11-21T07:37:20;100763.25;;;8.12;100.00
9141;BME280;46330;50.822;7.126;2023-11-21T07:39:48;100770.19;;;8.15;100.00
9141;BME280;46330;50.822;7.126;2023-11-21T07:42:17;100776.25;;;8.15;100.00
9141;BME280;46330;50.822;7.126;2023-11-21T07:44:49;100783.19;;;8.18;100.00
9141;BME280;46330;50.822;7.126;2023-11-21T07:47:16;100792.75;;;8.19;100.00
9141;BME280;46330;50.822;7.126;2023-11-21T07:49:44;100784.94;;;8.19;100.00
9141;BME280;46330;50.822;7.126;2023-11-21T07:52:13;100790.09;;;8.20;100.00
9141;BME280;46330;50.822;7.126;2023-11-21T07:54:42;100785.72;;;8.22;100.00
9141;BME280;46330;50.822;7.126;2023-11-21T07:57:10;100789.19;;;8.29;100.00
9141;BME280;46330;50.822;7.126;2023-11-21T07:59:41;100799.59;;;8.33;100.00
9141;BME280;46330;50.822;7.126;2023-11-21T08:02:09;100783.97;;;8.32;100.00
9141;BME280;46330;50.822;7.126;2023-11-21T08:04:37;100783.09;;;8.34;100.00
9141;BME280;46330;50.822;7.126;2023-11-21T08:07:05;100792.56;;;8.41;100.00
9141;BME280;46330;50.822;7.126;2023-11-21T08:09:33;100786.50;;;8.42;100.00
9141;BME280;46330;50.822;7.126;2023-11-21T08:12:01;100795.13;;;8.47;100.00
9141;BME280;46330;50.822;7.126;2023-11-21T08:14:29;100795.97;;;8.51;100.00
9141;BME280;46330;50.822;7.126;2023-11-21T08:16:59;100794.25;;;8.48;100.00
9141;BME280;46330;50.822;7.126;2023-11-21T08:19:27;100790.75;;;8.52;100.00
9141;BME280;46330;50.822;7.126;2023-11-21T08:21:55;100800.41;;;8.40;100.00
9141;BME280;46330;50.822;7.126;2023-11-21T08:24:23;100796.94;;;8.38;100.00
9141;BME280;46330;50.822;7.126;2023-11-21T08:26:51;100812.56;;;8.42;100.00
9141;BME280;46330;50.822;7.126;2023-11-21T08:29:19;100805.56;;;8.49;100.00
9141;BME280;46330;50.822;7.126;2023-11-21T08:31:47;100811.56;;;8.57;100.00
9141;BME280;46330;50.822;7.126;2023-11-21T08:34:16;100829.78;;;8.61;100.00
9141;BME280;46330;50.822;7.126;2023-11-21T08:36:45;100822.88;;;8.59;100.00
9141;BME280;46330;50.822;7.126;2023-11-21T08:39:13;100824.47;;;8.72;100.00
9141;BME280;46330;50.822;7.126;2023-11-21T08:41:43;100837.50;;;8.74;100.00
9141;BME280;46330;50.822;7.126;2023-11-21T08:44:11;100839.13;;;8.85;100.00
9141;BME280;46330;50.822;7.126;2023-11-21T08:46:39;100842.59;;;8.87;100.00
9141;BME280;46330;50.822;7.126;2023-11-21T08:49:08;100837.38;;;8.84;100.00
9141;BME280;46330;50.822;7.126;2023-11-21T08:51:38;100837.34;;;8.92;100.00
9141;BME280;46330;50.822;7.126;2023-11-21T08:54:06;100843.31;;;9.00;100.00
9141;BME280;46330;50.822;7.126;2023-11-21T08:56:34;100845.09;;;8.99;100.00
9141;BME280;46330;50.822;7.126;2023-11-21T08:59:03;100851.19;;;8.97;100.00
9141;BME280;46330;50.822;7.126;2023-11-21T09:01:31;100852.97;;;8.96;100.00
9141;BME280;46330;50.822;7.126;2023-11-21T09:04:00;100855.41;;;9.10;100.00
9141;BME280;46330;50.822;7.126;2023-11-21T09:06:29;100849.38;;;9.03;100.00
9141;BME280;46330;50.822;7.126;2023-11-21T09:08:58;100858.16;;;8.95;100.00
9141;BME280;46330;50.822;7.126;2023-11-21T09:11:26;100864.22;;;8.97;100.00
9141;BME280;46330;50.822;7.126;2023-11-21T09:14:00;100866.78;;;9.04;100.00
9141;BME280;46330;50.822;7.126;2023-11-21T09:16:28;100869.41;;;9.06;100.00
9141;BME280;46330;50.822;7.126;2023-11-21T09:18:56;100869.31;;;9.10;100.00
9141;BME280;46330;50.822;7.126;2023-11-21T09:21:25;100881.47;;;9.13;100.00
9141;BME280;46330;50.822;7.126;2023-11-21T09:23:54;100887.56;;;9.15;100.00
9141;BME280;46330;50.822;7.126;2023-11-21T09:26:23;100882.38;;;9.12;100.00
9141;BME280;46330;50.822;7.126;2023-11-21T09:28:51;100885.00;;;9.12;100.00
9141;BME280;46330;50.822;7.126;2023-11-21T09:31:20;100891.13;;;9.03;100.00
9141;BME280;46330;50.822;7.126;2023-11-21T09:33:49;100891.03;;;9.12;100.00
9141;BME280;46330;50.822;7.126;2023-11-21T09:36:17;100889.25;;;9.21;100.00
9141;BME280;46330;50.822;7.126;2023-11-21T09:38:45;100893.56;;;9.25;100.00
9141;BME280;46330;50.822;7.126;2023-11-21T09:41:21;100904.84;;;9.25;100.00
9141;BME280;46330;50.822;7.126;2023-11-21T09:43:54;100902.09;;;9.39;100.00
9141;BME280;46330;50.822;7.126;2023-11-21T09:46:27;100908.16;;;9.41;100.00
9141;BME280;46330;50.822;7.126;2023-11-21T09:48:58;100905.56;;;9.42;100.00
9141;BME280;46330;50.822;7.126;2023-11-21T09:51:29;100920.31;;;9.46;100.00
9141;BME280;46330;50.822;7.126;2023-11-21T09:54:02;100914.19;;;9.49;100.00
9141;BME280;46330;50.822;7.126;2023-11-21T09:56:33;100919.47;;;9.43;100.00
9141;BME280;46330;50.822;7.126;2023-11-21T09:59:03;100916.84;;;9.46;100.00
9141;BME280;46330;50.822;7.126;2023-11-21T10:01:36;100917.72;;;9.45;100.00
9141;BME280;46330;50.822;7.126;2023-11-21T10:04:04;100916.75;;;9.53;100.00
9141;BME280;46330;50.822;7.126;2023-11-21T10:06:39;100912.31;;;9.61;100.00
9141;BME280;46330;50.822;7.126;2023-11-21T10:09:09;100904.38;;;9.69;100.00
9141;BME280;46330;50.822;7.126;2023-11-21T10:11:40;100909.53;;;9.77;100.00
9141;BME280;46330;50.822;7.126;2023-11-21T10:14:11;100903.41;;;9.81;100.00
9141;BME280;46330;50.822;7.126;2023-11-21T10:16:41;100912.16;;;9.75;100.00
9141;BME280;46330;50.822;7.126;2023-11-21T10:19:14;100913.09;;;9.69;100.00
9141;BME280;46330;50.822;7.126;2023-11-21T10:21:43;100915.59;;;9.79;100.00
9141;BME280;46330;50.822;7.126;2023-11-21T10:24:11;100919.28;;;9.61;100.00
9141;BME280;46330;50.822;7.126;2023-11-21T10:26:40;100924.56;;;9.53;100.00
9141;BME280;46330;50.822;7.126;2023-11-21T10:29:20;100921.06;;;9.57;100.00
9141;BME280;46330;50.822;7.126;2023-11-21T10:31:50;100924.56;;;9.53;100.00
9141;BME280;46330;50.822;7.126;2023-11-21T10:34:20;100918.41;;;9.59;100.00
9141;BME280;46330;50.822;7.126;2023-11-21T10:36:48;100927.22;;;9.50;100.00
9141;BME280;46330;50.822;7.126;2023-11-21T10:39:17;100923.69;;;9.53;100.00
9141;BME280;46330;50.822;7.126;2023-11-21T10:41:46;100927.16;;;9.58;100.00
9141;BME280;46330;50.822;7.126;2023-11-21T10:44:16;100927.00;;;9.68;100.00
9141;BME280;46330;50.822;7.126;2023-11-21T10:46:52;100933.19;;;9.63;100.00
9141;BME280;46330;50.822;7.126;2023-11-21T10:49:24;100927.09;;;9.62;100.00
9141;BME280;46330;50.822;7.126;2023-11-21T10:51:53;100922.72;;;9.63;100.00
9141;BME280;46330;50.822;7.126;2023-11-21T10:54:23;100924.44;;;9.65;100.00
9141;BME280;46330;50.822;7.126;2023-11-21T10:56:56;100927.00;;;9.70;100.00
9141;BME280;46330;50.822;7.126;2023-11-21T10:59:29;100925.97;;;9.86;100.00
9141;BME280;46330;50.822;7.126;2023-11-21T11:02:01;100922.50;;;9.83;100.00
9141;BME280;46330;50.822;7.126;2023-11-21T11:04:31;100932.13;;;9.81;100.00
9141;BME280;46330;50.822;7.126;2023-11-21T11:07:02;100937.31;;;9.82;100.00
9141;BME280;46330;50.822;7.126;2023-11-21T11:09:32;100937.22;;;9.91;100.00
9141;BME280;46330;50.822;7.126;2023-11-21T11:12:01;100932.81;;;9.93;100.00
9141;BME280;46330;50.822;7.126;2023-11-21T11:14:31;100941.56;;;9.92;100.00
9141;BME280;46330;50.822;7.126;2023-11-21T11:17:01;100940.72;;;9.89;100.00
9141;BME280;46330;50.822;7.126;2023-11-21T11:19:32;100942.41;;;9.96;100.00
9141;BME280;46330;50.822;7.126;2023-11-21T11:22:10;100944.09;;;9.97;100.00
9141;BME280;46330;50.822;7.126;2023-11-21T11:25:03;100944.34;;;9.77;100.00
9141;BME280;46330;50.822;7.126;2023-11-21T11:27:49;100950.44;;;9.76;100.00
9141;BME280;46330;50.822;7.126;2023-11-21T11:30:35;100947.00;;;9.74;100.00
9141;BME280;46330;50.822;7.126;2023-11-21T11:33:17;100941.81;;;9.69;100.00
9141;BME280;46330;50.822;7.126;2023-11-21T11:35:57;100948.78;;;9.69;100.00
9141;BME280;46330;50.822;7.126;2023-11-21T11:38:31;100946.16;;;9.69;100.00
9141;BME280;46330;50.822;7.126;2023-11-21T11:41:02;100953.06;;;9.74;100.00
9141;BME280;46330;50.822;7.126;2023-11-21T11:43:31;100959.16;;;9.75;100.00
9141;BME280;46330;50.822;7.126;2023-11-21T11:46:11;100956.59;;;9.73;100.00
9141;BME280;46330;50.822;7.126;2023-11-21T11:48:42;100963.53;;;9.73;100.00
9141;BME280;46330;50.822;7.126;2023-11-21T11:51:13;100961.03;;;9.62;100.00
9141;BME280;46330;50.822;7.126;2023-11-21T11:53:45;100960.09;;;9.71;100.00
9141;BME280;46330;50.822;7.126;2023-11-21T11:56:22;100960.06;;;9.74;100.00
9141;BME280;46330;50.822;7.126;2023-11-21T11:58:53;100960.06;;;9.72;100.00
9141;BME280;46330;50.822;7.126;2023-11-21T12:01:25;100962.63;;;9.76;100.00
9141;BME280;46330;50.822;7.126;2023-11-21T12:04:26;100966.25;;;9.64;100.00
9141;BME280;46330;50.822;7.126;2023-11-21T12:07:02;100961.81;;;9.72;100.00
9141;BME280;46330;50.822;7.126;2023-11-21T12:09:31;100959.22;;;9.70;100.00
9141;BME280;46330;50.822;7.126;2023-11-21T12:12:00;100962.59;;;9.79;100.00
9141;BME280;46330;50.822;7.126;2023-11-21T12:14:28;100967.84;;;9.80;100.00
9141;BME280;46330;50.822;7.126;2023-11-21T12:16:56;100968.59;;;9.90;100.00
9141;BME280;46330;50.822;7.126;2023-11-21T12:19:27;100971.13;;;9.94;100.00
9141;BME280;46330;50.822;7.126;2023-11-21T12:21:55;100973.72;;;9.97;100.00
9141;BME280;46330;50.822;7.126;2023-11-21T12:24:23;100975.47;;;9.97;100.00
9141;BME280;46330;50.822;7.126;2023-11-21T12:26:52;100976.44;;;9.90;100.00
9141;BME280;46330;50.822;7.126;2023-11-21T12:29:20;100975.56;;;9.89;100.00
9141;BME280;46330;50.822;7.126;2023-11-21T12:31:49;100983.41;;;9.89;100.00
9141;BME280;46330;50.822;7.126;2023-11-21T12:34:17;100982.53;;;9.89;100.00
9141;BME280;46330;50.822;7.126;2023-11-21T12:36:47;100994.78;;;9.82;100.00
9141;BME280;46330;50.822;7.126;2023-11-21T12:39:16;100990.41;;;9.86;100.00
9141;BME280;46330;50.822;7.126;2023-11-21T12:41:44;100990.41;;;9.84;100.00
9141;BME280;46330;50.822;7.126;2023-11-21T12:44:12;100986.97;;;9.82;100.00
9141;BME280;46330;50.822;7.126;2023-11-21T12:46:42;100990.34;;;9.90;100.00
9141;BME280;46330;50.822;7.126;2023-11-21T12:49:13;100997.41;;;9.82;100.00
9141;BME280;46330;50.822;7.126;2023-11-21T12:51:46;100986.81;;;9.96;100.00
9141;BME280;46330;50.822;7.126;2023-11-21T12:54:15;100997.31;;;9.93;100.00
9141;BME280;46330;50.822;7.126;2023-11-21T12:56:45;101003.25;;;10.04;100.00
9141;BME280;46330;50.822;7.126;2023-11-21T12:59:15;100996.28;;;10.04;100.00
9141;BME280;46330;50.822;7.126;2023-11-21T13:01:45;100993.69;;;10.04;100.00
9141;BME280;46330;50.822;7.126;2023-11-21T13:04:14;100998.03;;;10.05;100.00
9141;BME280;46330;50.822;7.126;2023-11-21T13:06:42;100993.59;;;10.09;100.00
9141;BME280;46330;50.822;7.126;2023-11-21T13:09:11;100996.22;;;10.09;100.00
9141;BME280;46330;50.822;7.126;2023-11-21T13:11:44;100991.91;;;10.06;100.00